Terminal Aerodrome Forecast
Issued by NWS Rapid City, SD

Home | Current Version | Previous Version | Text Only | Print | Product List | Glossary Off
Versions: 1 2 3 4 5 6 7 8 9 10 11 12 13 14 15 16 17 18 19 20 21 22 23 24 25

113
FTUS43 KUNR 220520
TAFRAP
TAF
KRAP 220520Z 2206/2306 35014KT P6SM SKC
     FM221000 33014KT P6SM SCT040
     FM230500 36010KT P6SM -RA BKN008=

USA.gov is the U.S. government's official web portal to all federal, state and local government web resources and services.